Time;durP1;ratioP1;P1;durP2;ratioP2;P2;SDS_P1;SDS_P2;PMS_P1;PMS_P2;Temp;Humidity;BMP_temperature;BMP_pressure;BME280_temperature;BME280_humidity;BME280_pressure;Samples;Min_cycle;Max_cycle;Signal;HPM_P1;HPM_P2
2022/02/02 00:01:43;;;;;;;429.67;144.30;;;;;;;4.64;100.00;97546.91;5034538;28;20033;-58
2022/02/02 00:04:11;;;;;;;429.20;143.73;;;;;;;4.56;100.00;97545.34;5029933;28;20044;-58
2022/02/02 00:06:44;;;;;;;426.77;141.23;;;;;;;4.50;100.00;97570.78;5032185;28;20047;-57
2022/02/02 00:09:14;;;;;;;427.73;141.13;;;;;;;4.51;100.00;97575.00;5034854;28;20033;-58
2022/02/02 00:17:29;;;;;;;426.43;138.37;;;;;;;4.54;100.00;97554.66;5000361;28;20077;-58
2022/02/02 00:22:56;;;;;;;425.17;142.20;;;;;;;4.63;100.00;97547.78;4989000;28;20144;-57
2022/02/02 00:25:25;;;;;;;417.80;134.67;;;;;;;4.58;100.00;97574.06;5034301;28;20060;-55
2022/02/02 00:27:56;;;;;;;412.47;132.57;;;;;;;4.60;100.00;97552.03;5032628;28;20070;-57
2022/02/02 00:30:25;;;;;;;407.40;127.93;;;;;;;4.53;100.00;97575.84;5030688;28;20283;-58
2022/02/02 00:35:20;;;;;;;407.43;131.73;;;;;;;4.59;100.00;97557.13;5030538;28;20295;-57
2022/02/02 00:37:46;;;;;;;406.57;132.33;;;;;;;4.68;100.00;97582.41;5032108;28;20057;-58
2022/02/02 00:40:11;;;;;;;405.10;133.50;;;;;;;4.79;100.00;97572.97;5028854;28;20787;-59
2022/02/02 00:42:37;;;;;;;403.23;131.90;;;;;;;4.85;100.00;97541.56;5030169;28;20070;-57
2022/02/02 00:45:03;;;;;;;406.47;140.00;;;;;;;4.85;100.00;97549.19;5030681;28;20033;-58
2022/02/02 00:47:35;;;;;;;79.90;75.47;;;;;;;4.81;100.00;97550.91;5032178;28;20044;-58
2022/02/02 00:50:01;;;;;;;172.10;159.80;;;;;;;4.80;100.00;97538.22;5017621;28;20664;-58
2022/02/02 00:52:26;;;;;;;265.73;243.23;;;;;;;4.91;100.00;97562.63;5036618;28;20059;-57
2022/02/02 00:54:52;;;;;;;17.93;16.47;;;;;;;5.04;100.00;97553.16;5036915;28;20885;-58
2022/02/02 00:57:17;;;;;;;30.50;27.80;;;;;;;4.96;100.00;97572.75;5037199;28;20030;-58
2022/02/02 00:59:43;;;;;;;210.53;192.63;;;;;;;4.89;100.00;97574.50;5035295;28;20037;-59
2022/02/02 01:02:10;;;;;;;273.37;249.00;;;;;;;4.90;100.00;97577.88;5036493;28;20025;-57
2022/02/02 01:04:35;;;;;;;213.20;190.40;;;;;;;4.88;100.00;97587.25;5036488;28;20386;-59
2022/02/02 01:09:50;;;;;;;219.13;125.20;;;;;;;4.98;100.00;97587.09;5036026;28;20043;-59
2022/02/02 01:28:37;;;;;;;2.60;1.10;;;;;;;4.96;100.00;97565.13;4966802;28;20049;-56
2022/02/02 01:31:03;;;;;;;363.50;238.97;;;;;;;4.85;100.00;97560.16;4966403;28;21099;-59
2022/02/02 01:33:30;;;;;;;240.37;162.20;;;;;;;4.80;100.00;97548.38;4969527;28;20047;-58
2022/02/02 01:35:56;;;;;;;2.17;2.07;;;;;;;4.76;100.00;97551.84;4967871;28;20476;-58
2022/02/02 01:38:24;;;;;;;90.87;73.40;;;;;;;4.79;100.00;97549.28;4966696;28;20039;-58
2022/02/02 01:40:55;;;;;;;5.90;5.60;;;;;;;4.74;100.00;97551.88;4968838;28;20046;-58
2022/02/02 01:43:26;;;;;;;81.13;56.63;;;;;;;4.80;100.00;97539.06;4967845;28;20110;-58
2022/02/02 01:45:55;;;;;;;1.90;0.80;;;;;;;4.83;100.00;97561.06;4964216;28;20057;-58
2022/02/02 01:48:40;;;;;;;0.70;0.70;;;;;;;4.80;100.00;97548.38;4963088;28;20059;-58
2022/02/02 01:54:12;;;;;;;1.77;1.67;;;;;;;4.76;100.00;97526.44;4965914;28;20069;-55
2022/02/02 01:56:38;;;;;;;2.50;2.27;;;;;;;4.79;100.00;97541.66;4977603;28;20140;-57
2022/02/02 01:59:16;;;;;;;189.50;154.70;;;;;;;4.75;100.00;97562.88;5035169;28;20037;-56
2022/02/02 02:01:42;;;;;;;13.40;12.63;;;;;;;4.68;100.00;97557.00;5038556;28;20693;-58
2022/02/02 02:04:07;;;;;;;162.77;146.80;;;;;;;4.56;100.00;97526.72;5032939;28;20033;-58
2022/02/02 02:06:33;;;;;;;34.67;31.97;;;;;;;4.40;100.00;97545.53;5031891;28;20029;-58
2022/02/02 02:08:58;;;;;;;173.27;154.30;;;;;;;4.17;100.00;97533.13;5034630;28;20159;-57
2022/02/02 02:11:24;;;;;;;429.53;223.60;;;;;;;4.08;100.00;97535.75;5035757;28;20036;-59
2022/02/02 02:16:18;;;;;;;473.93;191.77;;;;;;;3.82;100.00;97533.50;5029697;28;20060;-58
2022/02/02 02:18:43;;;;;;;472.23;201.67;;;;;;;3.63;100.00;97530.31;5033023;28;20021;-58
2022/02/02 02:21:14;;;;;;;467.57;190.87;;;;;;;3.59;100.00;97532.88;5034314;28;20029;-58
2022/02/02 02:23:41;;;;;;;466.73;176.60;;;;;;;3.50;100.00;97522.84;5031971;28;20490;-57
2022/02/02 02:26:07;;;;;;;464.70;170.10;;;;;;;3.46;100.00;97536.38;5031020;28;20037;-59
2022/02/02 02:28:47;;;;;;;467.30;175.40;;;;;;;3.42;100.00;97558.38;5033165;28;20040;-57
2022/02/02 02:31:24;;;;;;;475.60;186.57;;;;;;;3.50;100.00;97520.31;5034183;28;20649;-57
2022/02/02 02:56:01;;;;;;;474.17;188.47;;;;;;;4.30;100.00;97499.13;4932725;29;20082;-58
2022/02/02 03:58:10;;;;;;;476.40;201.20;;;;;;;4.67;100.00;97582.44;5032691;28;20652;-58
2022/02/02 04:00:55;;;;;;;475.80;200.97;;;;;;;4.67;100.00;97569.75;5029651;28;20954;-60
2022/02/02 04:03:46;;;;;;;466.80;203.70;;;;;;;4.71;100.00;97574.75;5031467;28;20064;-61
2022/02/02 04:06:19;;;;;;;460.63;206.20;;;;;;;4.70;100.00;97585.78;5031268;28;20413;-59
2022/02/02 04:08:44;;;;;;;460.80;205.93;;;;;;;4.68;100.00;97572.25;5028979;28;20033;-59
2022/02/02 04:11:17;;;;;;;460.93;212.07;;;;;;;4.59;100.00;97590.97;5031331;28;20029;-61
2022/02/02 04:51:44;;;;;;;465.57;178.37;;;;;;;4.08;100.00;97573.78;5011225;28;20039;-60
2022/02/02 04:59:34;;;;;;;467.43;181.43;;;;;;;3.99;100.00;97567.13;5009443;28;20127;-59
2022/02/02 05:07:00;;;;;;;464.53;183.13;;;;;;;3.83;100.00;97575.75;5008142;28;20099;-59
2022/02/02 05:09:44;;;;;;;465.60;183.23;;;;;;;3.80;100.00;97590.13;5010502;28;20037;-59
2022/02/02 05:12:53;;;;;;;467.90;180.90;;;;;;;3.76;100.00;97583.41;5010691;28;20475;-58
2022/02/02 05:18:00;;;;;;;461.23;183.77;;;;;;;3.70;100.00;97591.91;5009461;28;20036;-58
2022/02/02 05:52:35;;;;;;;475.70;192.13;;;;;;;3.56;100.00;97601.34;5033754;28;20029;-58
2022/02/02 05:55:01;;;;;;;476.03;197.97;;;;;;;3.66;100.00;97602.94;5029936;28;20037;-57
2022/02/02 05:57:31;;;;;;;487.30;251.07;;;;;;;3.79;100.00;97607.03;5033026;28;20028;-57
2022/02/02 05:59:58;;;;;;;470.13;192.73;;;;;;;3.89;100.00;97610.34;5034027;28;20084;-59
2022/02/02 06:02:33;;;;;;;509.27;279.60;;;;;;;4.00;100.00;97624.59;5031749;28;20402;-59
2022/02/02 06:05:06;;;;;;;477.58;204.82;;;;;;;4.09;100.00;97631.28;5030422;28;20055;-57
2022/02/02 06:07:41;;;;;;;473.63;190.90;;;;;;;4.21;100.00;97623.53;5035076;28;20076;-57
2022/02/02 06:10:09;;;;;;;473.50;192.30;;;;;;;4.25;100.00;97630.25;5032280;28;20022;-58
2022/02/02 06:12:35;;;;;;;493.33;230.97;;;;;;;4.36;100.00;97632.69;5029601;28;20117;-57
2022/02/02 06:15:09;;;;;;;493.73;231.27;;;;;;;4.42;100.00;97643.63;5031357;28;20029;-58
2022/02/02 06:17:41;;;;;;;469.60;203.30;;;;;;;4.56;100.00;97636.69;5033268;28;20022;-55
2022/02/02 06:20:07;;;;;;;491.00;235.07;;;;;;;4.54;100.00;97645.19;5033507;28;20660;-58
2022/02/02 06:22:35;;;;;;;483.83;214.97;;;;;;;4.42;100.00;97650.38;5033212;28;20032;-57
2022/02/02 06:25:21;;;;;;;491.87;227.90;;;;;;;4.47;100.00;97649.47;5034667;28;20064;-58
2022/02/02 06:27:51;;;;;;;;;;;;;;;4.56;100.00;97657.00;5035823;28;20637;-54
2022/02/02 06:30:17;;;;;;;488.57;220.43;;;;;;;4.76;100.00;97640.69;5026988;28;19971;-56
2022/02/02 06:32:52;;;;;;;482.47;222.83;;;;;;;4.72;100.00;97651.75;5032512;28;20102;-55
2022/02/02 06:35:19;;;;;;;482.40;215.85;;;;;;;4.74;100.00;97663.56;5034173;28;20022;-54
2022/02/02 06:37:47;;;;;;;489.57;227.03;;;;;;;4.79;100.00;97668.59;5033672;28;20087;-58
2022/02/02 06:40:15;;;;;;;476.30;205.63;;;;;;;4.72;100.00;97661.91;5031694;28;20049;-57
2022/02/02 06:42:41;;;;;;;487.93;241.00;;;;;;;4.76;100.00;97656.75;5028989;28;20052;-57
2022/02/02 06:45:08;;;;;;;481.33;216.50;;;;;;;4.72;100.00;97654.28;5036176;28;20660;-55
2022/02/02 06:47:36;;;;;;;479.90;212.60;;;;;;;4.77;100.00;97655.91;5031187;28;20033;-57
2022/02/02 06:50:13;;;;;;;470.83;210.90;;;;;;;4.76;100.00;97671.16;5023331;28;20044;-56
2022/02/02 06:52:47;;;;;;;479.73;202.83;;;;;;;4.73;100.00;97663.59;5029800;28;20494;-57
2022/02/02 06:55:28;;;;;;;482.10;211.77;;;;;;;4.72;100.00;97693.19;5032487;28;20017;-56
2022/02/02 06:58:09;;;;;;;480.13;205.80;;;;;;;4.77;100.00;97688.06;5028813;28;20505;-57
2022/02/02 07:00:51;;;;;;;482.60;216.50;;;;;;;4.82;100.00;97679.56;5029884;28;20044;-57
2022/02/02 07:03:33;;;;;;;480.67;208.57;;;;;;;4.89;100.00;97672.69;5034966;28;20072;-57
2022/02/02 07:06:11;;;;;;;489.50;234.03;;;;;;;4.85;100.00;97669.34;5010059;28;20480;-53
2022/02/02 07:11:54;;;;;;;481.37;227.87;;;;;;;5.00;100.00;97696.28;5028945;28;20044;-56
2022/02/02 07:22:21;;;;;;;478.45;208.70;;;;;;;5.00;100.00;97744.53;5031268;28;20474;-54
2022/02/02 07:30:15;;;;;;;488.17;244.97;;;;;;;5.00;100.00;97744.53;5027961;28;20072;-57
2022/02/02 07:32:50;;;;;;;482.73;222.67;;;;;;;5.00;100.00;97749.63;5031434;28;20561;-57
2022/02/02 07:35:26;;;;;;;;;;;;;;;5.03;100.00;97760.59;5030103;28;20036;-56
2022/02/02 07:37:56;;;;;;;432.90;243.93;;;;;;;4.99;100.00;97758.94;5027798;28;19960;-59
2022/02/02 07:40:22;;;;;;;480.37;225.90;;;;;;;4.96;100.00;97765.75;5031582;28;20044;-60
2022/02/02 07:42:50;;;;;;;484.33;222.87;;;;;;;4.96;100.00;97764.06;5030961;28;20029;-59
2022/02/02 07:45:20;;;;;;;490.43;243.63;;;;;;;4.98;100.00;97769.09;5026670;28;20979;-59
2022/02/02 07:48:02;;;;;;;487.13;235.87;;;;;;;4.96;100.00;97758.97;5007421;28;20045;-58
2022/02/02 07:50:33;;;;;;;485.17;226.10;;;;;;;4.97;100.00;97762.34;5010159;28;20471;-59
2022/02/02 07:53:04;;;;;;;481.93;219.97;;;;;;;4.96;100.00;97766.59;5010038;28;20042;-59
2022/02/02 07:55:31;;;;;;;482.10;224.70;;;;;;;4.92;100.00;97759.03;5007508;28;20388;-58
2022/02/02 07:57:58;;;;;;;478.33;217.97;;;;;;;4.81;100.00;97788.75;5008703;28;20050;-58
2022/02/02 08:00:24;;;;;;;478.27;218.80;;;;;;;4.76;100.00;97776.09;5010266;28;20029;-59
2022/02/02 08:05:34;;;;;;;473.70;215.53;;;;;;;4.34;100.00;97786.63;5008230;28;20079;-59
2022/02/02 08:10:26;;;;;;;461.17;205.30;;;;;;;4.08;100.00;97796.97;5010734;28;20045;-58
2022/02/02 08:12:57;;;;;;;449.77;197.73;;;;;;;3.95;100.00;97793.66;5010654;28;20532;-59
2022/02/02 08:15:26;;;;;;;455.53;199.57;;;;;;;3.86;100.00;97788.66;5007293;28;20056;-57
2022/02/02 08:17:54;;;;;;;451.90;197.93;;;;;;;3.80;100.00;97780.25;5009506;28;20077;-59
2022/02/02 08:20:19;;;;;;;455.93;194.07;;;;;;;3.76;100.00;97771.84;5010340;28;20120;-59
2022/02/02 08:22:45;;;;;;;465.20;195.87;;;;;;;3.79;100.00;97786.16;5009366;28;20624;-59
2022/02/02 08:25:22;;;;;;;475.17;201.27;;;;;;;3.76;100.00;97793.81;5010484;28;20042;-59
2022/02/02 08:27:48;;;;;;;469.97;194.73;;;;;;;3.76;100.00;97797.19;5011421;28;20034;-58
2022/02/02 08:30:19;;;;;;;465.13;196.57;;;;;;;3.72;100.00;97802.28;5009223;28;20877;-59
2022/02/02 08:32:57;;;;;;;455.50;188.83;;;;;;;3.64;100.00;97795.56;5008991;28;21030;-58
2022/02/02 08:35:25;;;;;;;461.97;194.00;;;;;;;3.67;100.00;97782.03;4988198;28;20101;-58
2022/02/02 08:38:03;;;;;;;457.83;220.90;;;;;;;3.68;100.00;97793.84;5008978;28;20033;-58
2022/02/02 08:40:42;;;;;;;393.07;212.00;;;;;;;3.68;100.00;97807.38;5010148;28;20038;-56
2022/02/02 08:43:13;;;;;;;334.40;189.03;;;;;;;3.61;100.00;97804.84;5006838;28;20040;-56
2022/02/02 08:45:41;;;;;;;423.37;182.73;;;;;;;3.75;100.00;97809.84;5010773;28;20045;-59
2022/02/02 08:48:10;;;;;;;398.80;182.07;;;;;;;3.82;100.00;97812.34;5028722;28;20036;-58
2022/02/02 08:58:36;;;;;;;388.93;186.03;;;;;;;4.43;100.00;97824.63;5032923;28;20087;-60
2022/02/02 09:01:08;;;;;;;398.77;193.93;;;;;;;4.60;100.00;97831.25;5027730;28;20115;-59
2022/02/02 09:06:17;;;;;;;396.43;200.93;;;;;;;4.72;100.00;97824.38;5029345;28;20041;-60
2022/02/02 09:08:46;;;;;;;390.47;202.90;;;;;;;4.79;100.00;97844.63;5027409;28;20373;-60
2022/02/02 09:35:26;;;;;;;480.97;249.63;;;;;;;5.41;100.00;97840.63;5033277;28;20127;-60
2022/02/02 09:37:51;;;;;;;494.80;271.93;;;;;;;5.29;100.00;97851.75;5031230;28;20029;-61
2022/02/02 09:42:54;;;;;;;488.17;257.10;;;;;;;5.26;100.00;97856.03;5031205;28;20048;-60
2022/02/02 09:45:20;;;;;;;486.03;246.60;;;;;;;5.13;100.00;97839.25;5029581;28;20536;-59
2022/02/02 09:47:55;;;;;;;429.77;243.10;;;;;;;4.93;100.00;97870.72;5033496;28;20388;-61
2022/02/02 09:50:28;;;;;;;437.90;238.40;;;;;;;4.93;100.00;97873.28;5032403;28;20621;-58
2022/02/02 09:52:58;;;;;;;440.53;231.53;;;;;;;4.92;100.00;97876.66;5029139;28;20214;-59
2022/02/02 10:01:15;;;;;;;441.90;225.97;;;;;;;5.19;100.00;97885.72;5032496;28;20032;-59
2022/02/02 10:04:03;;;;;;;438.25;233.27;;;;;;;5.32;100.00;97859.34;5029500;28;20032;-59
2022/02/02 10:09:42;;;;;;;444.20;241.30;;;;;;;5.48;100.00;97854.94;5017069;28;20160;-60
2022/02/02 10:15:13;;;;;;;448.73;254.37;;;;;;;6.02;100.00;97845.81;5034179;28;20139;-59
2022/02/02 10:17:38;;;;;;;419.53;268.83;;;;;;;6.26;100.00;97847.16;5033558;28;20029;-60
2022/02/02 10:20:25;;;;;;;448.33;276.70;;;;;;;6.45;100.00;97840.09;5032006;28;20491;-59
2022/02/02 10:22:52;;;;;;;426.70;292.77;;;;;;;6.34;100.00;97850.44;5031115;28;20021;-60
2022/02/02 10:25:31;;;;;;;476.90;283.97;;;;;;;6.24;100.00;97842.09;5037339;28;20055;-58
2022/02/02 10:28:20;;;;;;;473.67;282.30;;;;;;;6.09;100.00;97844.88;5036632;28;20037;-60
2022/02/02 10:30:51;;;;;;;473.13;272.07;;;;;;;5.90;100.00;97851.03;5031619;28;20734;-60
2022/02/02 10:33:26;;;;;;;472.43;265.90;;;;;;;5.79;100.00;97866.44;5034065;28;20080;-58
2022/02/02 10:35:59;;;;;;;489.60;259.27;;;;;;;5.36;100.00;97847.44;5031559;28;20136;-60
2022/02/02 10:38:29;;;;;;;432.43;278.20;;;;;;;5.04;100.00;97881.66;5033005;28;20048;-59
2022/02/02 10:41:13;;;;;;;368.67;258.10;;;;;;;4.89;100.00;97873.31;5030397;28;20037;-60
2022/02/02 10:43:51;;;;;;;386.70;258.90;;;;;;;4.62;100.00;97883.72;5029295;28;20025;-60
2022/02/02 10:46:21;;;;;;;407.30;262.57;;;;;;;4.37;100.00;97893.19;5029943;28;20192;-58
2022/02/02 10:48:55;;;;;;;373.57;238.50;;;;;;;4.14;100.00;97876.41;5030019;28;20223;-59
2022/02/02 10:54:32;;;;;;;414.60;236.60;;;;;;;3.77;100.00;97853.78;5030161;28;20048;-58
2022/02/02 10:57:10;;;;;;;272.37;213.33;;;;;;;3.87;100.00;97858.78;5027709;28;20025;-59
2022/02/02 11:07:24;;;;;;;199.73;175.93;;;;;;;4.11;100.00;97876.44;5027638;28;20112;-57
2022/02/02 11:09:50;;;;;;;109.50;56.20;;;;;;;4.33;100.00;97882.19;5030359;28;20029;-59
2022/02/02 11:12:20;;;;;;;2.90;2.17;;;;;;;4.44;100.00;97862.69;5031709;28;20033;-57
2022/02/02 11:15:05;;;;;;;3.43;1.60;;;;;;;4.76;100.00;97861.56;5026803;28;20090;-56
2022/02/02 11:17:46;;;;;;;2.77;1.73;;;;;;;5.03;100.00;97864.72;5029257;28;20422;-58
2022/02/02 11:20:14;;;;;;;441.47;189.73;;;;;;;5.15;100.00;97875.63;5028882;28;20427;-59
2022/02/02 11:22:49;;;;;;;130.63;117.80;;;;;;;4.89;100.00;97883.47;5025696;28;20140;-59
2022/02/02 11:25:15;;;;;;;184.77;166.30;;;;;;;4.84;100.00;97867.41;5027627;28;20034;-59
2022/02/02 11:27:45;;;;;;;88.90;80.13;;;;;;;4.84;100.00;97864.88;5029892;28;20056;-59
2022/02/02 11:30:23;;;;;;;183.53;162.27;;;;;;;4.95;100.00;97858.03;5027132;28;20412;-59
2022/02/02 11:32:52;;;;;;;136.13;121.50;;;;;;;5.15;100.00;97865.44;5028723;28;20475;-58
2022/02/02 11:38:21;;;;;;;85.20;72.87;;;;;;;5.23;100.00;97848.44;5028826;28;20375;-56
2022/02/02 11:41:14;;;;;;;7.50;5.57;;;;;;;5.40;100.00;97841.47;5027919;28;20511;-56
2022/02/02 11:46:46;;;;;;;4.87;1.27;;;;;;;5.61;100.00;97805.63;5029504;28;20445;-58
2022/02/02 11:49:19;;;;;;;1.83;1.65;;;;;;;5.74;100.00;97841.91;5028959;28;20035;-58
2022/02/02 11:52:03;;;;;;;2.77;1.60;;;;;;;5.55;100.00;97845.53;5027587;28;20447;-59
2022/02/02 11:54:31;;;;;;;6.40;5.53;;;;;;;5.32;100.00;97859.34;5030440;28;20124;-56
2022/02/02 11:57:05;;;;;;;6.30;5.90;;;;;;;5.15;100.00;97879.00;5032228;28;20420;-55
2022/02/02 12:02:50;;;;;;;209.93;194.33;;;;;;;4.38;100.00;97954.06;5028288;28;20041;-59
2022/02/02 12:05:38;;;;;;;153.10;142.27;;;;;;;3.77;100.00;97942.50;5028970;28;20117;-59
2022/02/02 12:55:39;;;;;;;96.13;89.33;;;;;;;2.97;100.00;97996.66;5028865;28;20176;-58
2022/02/02 12:57:02;;;;;;;91.50;85.43;;;;;;;3.02;100.00;98003.41;5023661;28;20140;-58
2022/02/02 13:00:12;;;;;;;93.87;87.43;;;;;;;2.94;100.00;98000.03;5031618;28;20041;-59
2022/02/02 13:02:28;;;;;;;93.43;87.07;;;;;;;2.97;100.00;98019.44;5029063;28;20036;-61
2022/02/02 13:04:56;;;;;;;81.37;75.97;;;;;;;2.92;100.00;98019.44;5030686;28;20076;-60
2022/02/02 13:07:25;;;;;;;99.60;92.73;;;;;;;2.82;100.00;98034.59;5031809;28;20029;-59
2022/02/02 13:09:52;;;;;;;79.87;75.13;;;;;;;2.65;100.00;98065.78;5030746;28;20025;-60
2022/02/02 13:12:18;;;;;;;54.67;51.13;;;;;;;2.41;100.00;98052.19;5030385;28;20025;-62
2022/02/02 13:15:05;;;;;;;83.97;78.33;;;;;;;2.14;100.00;98086.63;5032554;28;20132;-59
2022/02/02 13:17:59;;;;;;;29.25;27.88;;;;;;;2.15;100.00;98064.72;5030145;28;20071;-60
2022/02/02 13:20:37;;;;;;;101.73;94.10;;;;;;;2.37;100.00;98043.75;5032762;28;20030;-59
2022/02/02 13:23:09;;;;;;;70.83;66.33;;;;;;;2.44;100.00;98025.22;5031382;28;20021;-61
2022/02/02 13:25:35;;;;;;;84.10;78.57;;;;;;;2.46;100.00;98015.94;5027421;28;20022;-60
2022/02/02 13:28:02;;;;;;;82.47;77.10;;;;;;;2.57;100.00;98024.44;5028351;28;20029;-60
2022/02/02 13:30:53;;;;;;;36.67;34.67;;;;;;;2.89;100.00;98026.16;5030844;28;20049;-59
2022/02/02 13:33:34;;;;;;;4.60;4.27;;;;;;;3.10;100.00;98023.66;5027074;28;20018;-60
2022/02/02 13:36:16;;;;;;;52.23;49.43;;;;;;;3.19;100.00;98032.09;5028223;28;20029;-60
2022/02/02 13:56:36;;;;;;;4.93;1.83;;;;;;;4.01;100.00;98054.84;5011051;28;20072;-60
2022/02/02 14:02:08;;;;;;;11.07;10.37;;;;;;;4.24;100.00;98043.78;4957948;28;20138;-58
2022/02/02 14:10:55;;;;;;;169.07;156.33;;;;;;;4.43;100.00;98066.53;4923670;29;20375;-62
2022/02/02 14:32:03;;;;;;;3.03;2.73;;;;;;;4.02;100.00;98086.97;4920915;29;21013;-60
2022/02/02 14:34:28;;;;;;;5.67;2.70;;;;;;;3.93;100.00;98093.75;4922381;29;20150;-59
2022/02/02 14:36:53;;;;;;;4.73;2.43;;;;;;;3.88;100.00;98110.66;4925189;29;20146;-58
2022/02/02 14:39:25;;;;;;;4.73;3.93;;;;;;;3.82;100.00;98090.38;4946051;28;20795;-57
2022/02/02 14:41:57;;;;;;;2.17;1.90;;;;;;;3.85;100.00;98083.63;4958704;28;20201;-59
2022/02/02 14:44:33;;;;;;;2.20;1.70;;;;;;;3.87;100.00;98079.38;4992728;28;20109;-58
2022/02/02 14:47:07;;;;;;;5.13;2.40;;;;;;;3.85;100.00;98072.63;5011742;28;20132;-57
2022/02/02 14:52:57;;;;;;;4.60;2.37;;;;;;;4.00;100.00;98091.19;5008172;28;20107;-56
2022/02/02 15:25:19;;;;;;;6.90;4.30;;;;;;;4.57;100.00;98143.50;4899521;29;20575;-59
2022/02/02 15:27:41;;;;;;;4.22;4.00;;;;;;;4.60;100.00;98147.69;4916555;29;20066;-60
2022/02/02 15:30:23;;;;;;;4.97;4.57;;;;;;;4.68;100.00;98152.75;4919420;29;20572;-60
2022/02/02 15:32:50;;;;;;;3.70;2.57;;;;;;;4.69;100.00;98155.28;4920108;29;20099;-59
2022/02/02 15:35:15;;;;;;;5.00;2.33;;;;;;;4.62;100.00;98165.47;4919875;29;20042;-60
2022/02/02 15:38:03;;;;;;;2.87;1.67;;;;;;;4.65;100.00;98163.78;4919941;29;20036;-60
2022/02/02 15:40:34;;;;;;;1.90;1.43;;;;;;;4.73;100.00;98166.28;4921759;29;20036;-60
2022/02/02 16:00:03;;;;;;;229.33;199.70;;;;;;;4.73;100.00;98210.28;4939508;28;20051;-59
2022/02/02 16:02:20;;;;;;;300.75;194.98;;;;;;;4.76;100.00;98217.03;4941770;28;20040;-58
2022/02/02 16:04:46;;;;;;;421.77;220.17;;;;;;;4.86;100.00;98229.72;4937722;28;20042;-56
2022/02/02 16:07:21;;;;;;;341.67;198.37;;;;;;;4.85;100.00;98230.56;4938878;28;20885;-58
2022/02/02 16:12:23;;;;;;;288.50;186.83;;;;;;;4.82;100.00;98233.13;4940873;28;20069;-57
2022/02/02 16:15:32;;;;;;;178.43;141.57;;;;;;;4.83;100.00;98231.44;4939995;28;20039;-58
2022/02/02 16:17:49;;;;;;;357.93;208.17;;;;;;;4.86;100.00;98256.81;4937048;28;20035;-57
2022/02/02 16:36:34;;;;;;;199.00;179.67;;;;;;;5.06;95.56;98310.94;5009676;28;20044;-57
2022/02/02 16:39:06;;;;;;;206.53;184.53;;;;;;;5.04;95.48;98305.88;5009690;28;20496;-59
2022/02/02 16:44:16;;;;;;;188.70;173.10;;;;;;;4.94;96.90;98303.34;5009356;28;20051;-60
2022/02/02 16:46:41;;;;;;;22.87;21.60;;;;;;;4.96;95.71;98310.13;5022540;28;20412;-58
2022/02/02 16:49:08;;;;;;;59.47;56.17;;;;;;;4.95;96.31;98313.53;5028906;28;20052;-58
2022/02/02 16:51:33;;;;;;;85.27;79.80;;;;;;;4.89;98.18;98330.44;5026705;28;20029;-57
2022/02/02 16:54:01;;;;;;;184.47;165.50;;;;;;;4.91;98.21;98344.00;5027597;28;20032;-55
2022/02/02 17:36:53;;;;;;;3.73;1.43;;;;;;;5.06;86.97;98425.25;5033643;28;20041;-58
2022/02/02 17:39:20;;;;;;;6.53;2.73;;;;;;;5.07;88.03;98432.91;5035109;28;20172;-58
2022/02/02 17:42:10;;;;;;;3.50;1.80;;;;;;;5.01;88.74;98437.13;5036085;28;20120;-57
2022/02/02 18:15:15;;;;;;;5.43;4.93;;;;;;;4.53;100.00;98516.63;5026170;28;20044;-59
2022/02/02 18:19:47;;;;;;;2.30;1.17;;;;;;;4.45;100.00;98523.38;5033822;28;20184;-58
2022/02/02 18:22:14;;;;;;;2.90;1.43;;;;;;;4.39;100.00;98533.50;5024789;28;20029;-58
2022/02/02 18:25:00;;;;;;;52.80;50.10;;;;;;;4.45;100.00;98536.06;5021869;28;20083;-58
2022/02/02 18:27:34;;;;;;;3.10;1.15;;;;;;;4.36;100.00;98530.94;5034228;28;20160;-58
2022/02/02 18:30:18;;;;;;;1.48;0.95;;;;;;;4.26;100.00;98542.75;5024831;28;20101;-57
2022/02/02 18:35:33;;;;;;;2.90;2.10;;;;;;;4.23;100.00;98545.28;5030437;28;20060;-58
2022/02/02 18:52:08;;;;;;;3.00;2.10;;;;;;;4.37;100.00;98580.88;4939882;28;20075;-58
2022/02/02 18:57:13;;;;;;;4.77;2.03;;;;;;;4.29;100.00;98569.81;4870355;29;20421;-58
2022/02/02 19:05:04;;;;;;;26.33;25.07;;;;;;;4.10;100.00;98595.09;4870703;29;20033;-58
2022/02/02 19:40:24;;;;;;;282.43;201.23;;;;;;;4.37;94.99;98665.44;4932478;29;20472;-58
2022/02/02 20:03:05;;;;;;;161.40;149.43;;;;;;;4.23;98.63;98691.59;4902473;29;20201;-59
2022/02/02 20:10:48;;;;;;;2.57;0.90;;;;;;;4.04;100.00;98691.44;4901341;29;20084;-59
2022/02/02 20:13:15;;;;;;;3.67;1.23;;;;;;;3.99;100.00;98704.91;4904955;29;20130;-57
2022/02/02 20:15:41;;;;;;;4.90;2.37;;;;;;;4.01;100.00;98705.78;4908828;29;20122;-57
2022/02/02 20:18:08;;;;;;;4.33;2.00;;;;;;;4.05;100.00;98717.66;4922077;29;20146;-58
2022/02/02 20:20:38;;;;;;;46.20;40.97;;;;;;;4.05;100.00;98730.34;4919823;29;20054;-58
2022/02/02 20:23:05;;;;;;;1.53;0.83;;;;;;;3.91;100.00;98735.28;4921640;29;20043;-58
2022/02/02 20:25:32;;;;;;;407.80;145.50;;;;;;;3.89;100.00;98731.06;4922038;29;20035;-56
2022/02/02 20:28:07;;;;;;;400.43;134.17;;;;;;;3.91;99.25;98725.16;4919404;29;20271;-59
2022/02/02 20:30:34;;;;;;;400.80;131.50;;;;;;;4.11;93.10;98740.56;4939673;28;20297;-58
2022/02/02 20:32:59;;;;;;;67.73;57.30;;;;;;;4.19;90.36;98733.84;4967846;28;20924;-59
2022/02/02 20:35:25;;;;;;;3.20;0.83;;;;;;;4.11;92.27;98738.00;5020218;28;20334;-57
2022/02/02 20:37:50;;;;;;;3.50;1.20;;;;;;;4.01;92.83;98742.16;5019348;28;20447;-59
2022/02/02 20:40:16;;;;;;;38.93;36.27;;;;;;;3.99;92.21;98737.88;5019760;28;20145;-58
2022/02/02 20:42:58;;;;;;;2.30;1.57;;;;;;;3.93;92.32;98741.25;5019258;28;20131;-58
2022/02/02 21:14:36;;;;;;;174.20;134.80;;;;;;;4.07;85.79;98757.41;5011105;28;20042;-60
2022/02/02 21:17:03;;;;;;;2.93;0.93;;;;;;;4.18;83.88;98760.06;5011972;28;20113;-59
2022/02/02 21:19:37;;;;;;;1.37;0.90;;;;;;;4.23;82.42;98771.09;5012919;28;20042;-59
2022/02/02 21:22:03;;;;;;;4.53;1.33;;;;;;;4.30;82.23;98780.44;5009015;28;20026;-60
2022/02/02 21:29:21;;;;;;;2.93;1.00;;;;;;;4.31;86.27;98769.47;5016204;28;20144;-59
2022/02/02 21:31:46;;;;;;;1.77;0.90;;;;;;;4.28;88.17;98774.53;5010264;28;20044;-59
2022/02/02 21:34:12;;;;;;;5.83;1.20;;;;;;;4.21;88.53;98777.81;5010432;28;20044;-58
2022/02/02 21:36:37;;;;;;;2.23;1.27;;;;;;;4.21;89.87;98774.44;5017168;28;20030;-60
2022/02/02 21:39:09;;;;;;;174.87;138.57;;;;;;;4.23;87.76;98766.03;5015907;28;20093;-59
2022/02/02 21:41:38;;;;;;;2.70;1.10;;;;;;;4.18;89.11;98769.34;5009912;28;20064;-58
2022/02/02 21:44:06;;;;;;;5.53;1.20;;;;;;;4.21;88.60;98771.91;5013437;28;20044;-59
2022/02/02 21:46:32;;;;;;;2.17;1.20;;;;;;;4.17;89.77;98781.19;5009177;28;20840;-59
2022/02/02 21:49:00;;;;;;;1.97;1.07;;;;;;;4.07;90.91;98775.16;5009475;28;20029;-59
2022/02/02 21:51:30;;;;;;;1.10;1.10;;;;;;;4.12;90.93;98781.13;5008911;28;20061;-59
2022/02/02 21:53:56;;;;;;;47.47;24.73;;;;;;;4.10;92.04;98798.03;5011372;28;20360;-58
2022/02/02 21:56:21;;;;;;;4.90;1.40;;;;;;;3.99;93.98;98781.84;5012368;28;20033;-58
2022/02/02 21:58:48;;;;;;;2.73;1.10;;;;;;;3.91;95.72;98775.88;5012715;28;20933;-60
2022/02/02 22:01:13;;;;;;;4.17;1.83;;;;;;;3.91;96.14;98775.00;5008392;28;20033;-58
2022/02/02 22:03:39;;;;;;;4.57;1.13;;;;;;;3.85;97.38;98769.91;5009542;28;20505;-58
2022/02/02 22:06:04;;;;;;;5.27;1.87;;;;;;;4.02;94.70;98781.06;5010724;28;20033;-57
2022/02/02 22:08:30;;;;;;;11.27;0.97;;;;;;;4.10;93.75;98787.03;5008677;28;20057;-60
2022/02/02 22:10:55;;;;;;;4.43;1.30;;;;;;;4.10;93.79;98792.13;5005606;28;20549;-60
2022/02/02 22:13:23;;;;;;;4.73;1.30;;;;;;;4.14;93.35;98804.84;5009680;28;20458;-58
2022/02/02 22:15:54;;;;;;;0.80;0.80;;;;;;;4.22;93.56;98812.53;5012544;28;20037;-55
2022/02/02 22:18:20;;;;;;;51.70;39.63;;;;;;;4.14;95.26;98806.53;5012111;28;20103;-60